sensor_id;sensor_type;location;lat;lon;timestamp;temperature;humidity
27741;DHT22;15134;48.768;9.184;2022-12-11T00:00:11;0.90;99.90
27741;DHT22;15134;48.768;9.184;2022-12-11T00:02:42;0.90;99.90
27741;DHT22;15134;48.768;9.184;2022-12-11T00:05:08;0.90;99.90
27741;DHT22;15134;48.768;9.184;2022-12-11T00:07:33;0.70;99.90
27741;DHT22;15134;48.768;9.184;2022-12-11T00:09:59;0.60;99.90
27741;DHT22;15134;48.768;9.184;2022-12-11T00:12:25;0.50;99.90
27741;DHT22;15134;48.768;9.184;2022-12-11T00:14:53;0.50;99.90
27741;DHT22;15134;48.768;9.184;2022-12-11T00:17:22;0.50;99.90
27741;DHT22;15134;48.768;9.184;2022-12-11T00:19:47;0.50;99.90
27741;DHT22;15134;48.768;9.184;2022-12-11T00:22:13;0.50;99.90
27741;DHT22;15134;48.768;9.184;2022-12-11T00:24:39;0.60;99.90
27741;DHT22;15134;48.768;9.184;2022-12-11T00:27:07;0.50;99.90
27741;DHT22;15134;48.768;9.184;2022-12-11T00:29:33;0.50;99.90
27741;DHT22;15134;48.768;9.184;2022-12-11T00:31:59;0.40;99.90
27741;DHT22;15134;48.768;9.184;2022-12-11T00:34:24;0.50;99.90
27741;DHT22;15134;48.768;9.184;2022-12-11T00:36:56;0.60;99.90
27741;DHT22;15134;48.768;9.184;2022-12-11T00:39:23;0.70;99.90
27741;DHT22;15134;48.768;9.184;2022-12-11T00:41:49;0.70;99.90
27741;DHT22;15134;48.768;9.184;2022-12-11T00:44:15;0.80;99.90
27741;DHT22;15134;48.768;9.184;2022-12-11T00:46:44;0.80;99.90
27741;DHT22;15134;48.768;9.184;2022-12-11T00:49:09;0.80;99.90
27741;DHT22;15134;48.768;9.184;2022-12-11T00:51:35;0.80;99.90
27741;DHT22;15134;48.768;9.184;2022-12-11T00:54:02;0.90;99.90
27741;DHT22;15134;48.768;9.184;2022-12-11T00:56:27;1.00;99.90
27741;DHT22;15134;48.768;9.184;2022-12-11T00:58:53;1.00;99.90
27741;DHT22;15134;48.768;9.184;2022-12-11T01:01:21;1.00;99.90
27741;DHT22;15134;48.768;9.184;2022-12-11T01:03:52;1.00;99.90
27741;DHT22;15134;48.768;9.184;2022-12-11T01:06:21;1.00;99.90
27741;DHT22;15134;48.768;9.184;2022-12-11T01:08:47;1.00;99.90
27741;DHT22;15134;48.768;9.184;2022-12-11T01:11:15;0.90;99.90
27741;DHT22;15134;48.768;9.184;2022-12-11T01:13:41;0.90;99.90
27741;DHT22;15134;48.768;9.184;2022-12-11T01:16:12;0.90;99.90
27741;DHT22;15134;48.768;9.184;2022-12-11T01:18:38;1.00;99.90
27741;DHT22;15134;48.768;9.184;2022-12-11T01:21:06;1.00;99.90
27741;DHT22;15134;48.768;9.184;2022-12-11T01:23:32;1.00;99.90
27741;DHT22;15134;48.768;9.184;2022-12-11T01:26:06;1.00;99.90
27741;DHT22;15134;48.768;9.184;2022-12-11T01:28:33;1.00;99.90
27741;DHT22;15134;48.768;9.184;2022-12-11T01:30:58;1.00;99.90
27741;DHT22;15134;48.768;9.184;2022-12-11T01:33:24;1.00;99.90
27741;DHT22;15134;48.768;9.184;2022-12-11T01:35:50;0.90;99.90
27741;DHT22;15134;48.768;9.184;2022-12-11T01:38:15;1.00;99.90
27741;DHT22;15134;48.768;9.184;2022-12-11T01:40:46;0.90;99.90
27741;DHT22;15134;48.768;9.184;2022-12-11T01:43:14;0.80;99.90
27741;DHT22;15134;48.768;9.184;2022-12-11T01:45:44;0.70;99.90
27741;DHT22;15134;48.768;9.184;2022-12-11T01:48:38;0.70;99.90
27741;DHT22;15134;48.768;9.184;2022-12-11T01:51:04;0.70;99.90
27741;DHT22;15134;48.768;9.184;2022-12-11T01:53:40;0.70;99.90
27741;DHT22;15134;48.768;9.184;2022-12-11T01:56:07;0.90;99.90
27741;DHT22;15134;48.768;9.184;2022-12-11T01:58:37;0.90;99.90
27741;DHT22;15134;48.768;9.184;2022-12-11T02:01:04;1.00;99.90
27741;DHT22;15134;48.768;9.184;2022-12-11T02:03:30;1.00;99.90
27741;DHT22;15134;48.768;9.184;2022-12-11T02:06:01;1.00;99.90
27741;DHT22;15134;48.768;9.184;2022-12-11T02:08:28;1.10;99.90
27741;DHT22;15134;48.768;9.184;2022-12-11T02:11:00;1.10;99.90
27741;DHT22;15134;48.768;9.184;2022-12-11T02:16:29;1.10;99.90
27741;DHT22;15134;48.768;9.184;2022-12-11T02:19:20;1.10;99.90
27741;DHT22;15134;48.768;9.184;2022-12-11T02:21:54;1.20;99.90
27741;DHT22;15134;48.768;9.184;2022-12-11T02:30:00;1.30;99.90
27741;DHT22;15134;48.768;9.184;2022-12-11T02:32:35;1.30;99.90
27741;DHT22;15134;48.768;9.184;2022-12-11T02:35:08;1.30;99.90
27741;DHT22;15134;48.768;9.184;2022-12-11T02:37:36;1.30;99.90
27741;DHT22;15134;48.768;9.184;2022-12-11T02:40:06;1.20;99.90
27741;DHT22;15134;48.768;9.184;2022-12-11T02:42:39;1.30;99.90
27741;DHT22;15134;48.768;9.184;2022-12-11T02:45:07;1.30;99.90
27741;DHT22;15134;48.768;9.184;2022-12-11T02:47:34;1.30;99.90
27741;DHT22;15134;48.768;9.184;2022-12-11T02:50:08;1.40;99.90
27741;DHT22;15134;48.768;9.184;2022-12-11T02:52:40;1.50;99.90
27741;DHT22;15134;48.768;9.184;2022-12-11T02:55:08;1.60;99.90
27741;DHT22;15134;48.768;9.184;2022-12-11T02:57:43;1.70;99.90
27741;DHT22;15134;48.768;9.184;2022-12-11T03:00:10;1.70;99.90
27741;DHT22;15134;48.768;9.184;2022-12-11T03:02:37;1.80;99.90
27741;DHT22;15134;48.768;9.184;2022-12-11T03:05:04;1.80;99.90
27741;DHT22;15134;48.768;9.184;2022-12-11T03:07:37;1.80;99.90
27741;DHT22;15134;48.768;9.184;2022-12-11T03:10:06;1.80;99.90
27741;DHT22;15134;48.768;9.184;2022-12-11T03:12:40;1.80;99.90
27741;DHT22;15134;48.768;9.184;2022-12-11T03:15:13;1.90;99.90
27741;DHT22;15134;48.768;9.184;2022-12-11T03:18:03;1.90;99.90
27741;DHT22;15134;48.768;9.184;2022-12-11T03:20:42;1.90;99.90
27741;DHT22;15134;48.768;9.184;2022-12-11T03:25:48;1.90;99.90
27741;DHT22;15134;48.768;9.184;2022-12-11T03:30:55;1.90;99.90
27741;DHT22;15134;48.768;9.184;2022-12-11T03:33:42;2.00;99.90
27741;DHT22;15134;48.768;9.184;2022-12-11T03:36:19;2.10;99.90
27741;DHT22;15134;48.768;9.184;2022-12-11T03:38:52;2.10;99.90
27741;DHT22;15134;48.768;9.184;2022-12-11T03:44:08;2.10;99.90
27741;DHT22;15134;48.768;9.184;2022-12-11T03:46:38;2.10;99.90
27741;DHT22;15134;48.768;9.184;2022-12-11T03:49:15;2.10;99.90
27741;DHT22;15134;48.768;9.184;2022-12-11T03:51:43;2.10;99.90
27741;DHT22;15134;48.768;9.184;2022-12-11T03:54:17;2.10;99.90
27741;DHT22;15134;48.768;9.184;2022-12-11T03:56:50;2.10;99.90
27741;DHT22;15134;48.768;9.184;2022-12-11T03:59:18;2.20;99.90
27741;DHT22;15134;48.768;9.184;2022-12-11T04:01:43;2.20;99.90
27741;DHT22;15134;48.768;9.184;2022-12-11T04:04:09;2.20;99.90
27741;DHT22;15134;48.768;9.184;2022-12-11T04:06:35;2.10;99.90
27741;DHT22;15134;48.768;9.184;2022-12-11T04:09:03;2.10;99.90
27741;DHT22;15134;48.768;9.184;2022-12-11T04:11:29;2.00;99.90
27741;DHT22;15134;48.768;9.184;2022-12-11T04:14:08;2.00;99.90
27741;DHT22;15134;48.768;9.184;2022-12-11T04:16:53;1.90;99.90
27741;DHT22;15134;48.768;9.184;2022-12-11T04:19:21;1.90;99.90
27741;DHT22;15134;48.768;9.184;2022-12-11T04:22:06;1.90;99.90
27741;DHT22;15134;48.768;9.184;2022-12-11T04:24:50;1.80;99.90
27741;DHT22;15134;48.768;9.184;2022-12-11T04:27:16;1.70;99.90
27741;DHT22;15134;48.768;9.184;2022-12-11T04:30:09;1.70;99.90
27741;DHT22;15134;48.768;9.184;2022-12-11T04:32:36;1.70;99.90
27741;DHT22;15134;48.768;9.184;2022-12-11T04:35:02;1.60;99.90
27741;DHT22;15134;48.768;9.184;2022-12-11T04:37:28;1.60;99.90
27741;DHT22;15134;48.768;9.184;2022-12-11T04:39:54;1.60;99.90
27741;DHT22;15134;48.768;9.184;2022-12-11T04:42:26;1.60;99.90
27741;DHT22;15134;48.768;9.184;2022-12-11T04:44:51;1.60;99.90
27741;DHT22;15134;48.768;9.184;2022-12-11T04:47:17;1.60;99.90
27741;DHT22;15134;48.768;9.184;2022-12-11T04:49:43;1.50;99.90
27741;DHT22;15134;48.768;9.184;2022-12-11T04:52:12;1.60;99.90
27741;DHT22;15134;48.768;9.184;2022-12-11T04:54:38;1.60;99.90
27741;DHT22;15134;48.768;9.184;2022-12-11T04:57:04;1.50;99.90
27741;DHT22;15134;48.768;9.184;2022-12-11T04:59:31;1.50;99.90
27741;DHT22;15134;48.768;9.184;2022-12-11T05:02:00;1.40;99.90
27741;DHT22;15134;48.768;9.184;2022-12-11T05:04:30;1.40;99.90
27741;DHT22;15134;48.768;9.184;2022-12-11T05:06:56;1.40;99.90
27741;DHT22;15134;48.768;9.184;2022-12-11T05:09:22;1.40;99.90
27741;DHT22;15134;48.768;9.184;2022-12-11T05:11:48;1.30;99.90
27741;DHT22;15134;48.768;9.184;2022-12-11T05:14:13;1.30;99.90
27741;DHT22;15134;48.768;9.184;2022-12-11T05:16:39;1.30;99.90
27741;DHT22;15134;48.768;9.184;2022-12-11T05:19:05;1.30;99.90
27741;DHT22;15134;48.768;9.184;2022-12-11T05:21:30;1.30;99.90
27741;DHT22;15134;48.768;9.184;2022-12-11T05:23:57;1.30;99.90
27741;DHT22;15134;48.768;9.184;2022-12-11T05:26:22;1.30;99.90
27741;DHT22;15134;48.768;9.184;2022-12-11T05:28:52;1.30;99.90
27741;DHT22;15134;48.768;9.184;2022-12-11T05:31:24;1.40;99.90
27741;DHT22;15134;48.768;9.184;2022-12-11T05:33:51;1.40;99.90
27741;DHT22;15134;48.768;9.184;2022-12-11T05:36:20;1.30;99.90
27741;DHT22;15134;48.768;9.184;2022-12-11T05:38:46;1.10;99.90
27741;DHT22;15134;48.768;9.184;2022-12-11T05:41:14;1.00;99.90
27741;DHT22;15134;48.768;9.184;2022-12-11T05:43:40;1.00;99.90
27741;DHT22;15134;48.768;9.184;2022-12-11T05:46:09;0.90;99.90
27741;DHT22;15134;48.768;9.184;2022-12-11T05:48:35;0.60;99.90
27741;DHT22;15134;48.768;9.184;2022-12-11T05:51:02;0.50;99.90
27741;DHT22;15134;48.768;9.184;2022-12-11T05:53:28;0.50;99.90
27741;DHT22;15134;48.768;9.184;2022-12-11T05:55:54;0.40;99.90
27741;DHT22;15134;48.768;9.184;2022-12-11T05:58:20;0.40;99.90
27741;DHT22;15134;48.768;9.184;2022-12-11T06:00:46;0.40;99.90
27741;DHT22;15134;48.768;9.184;2022-12-11T06:03:12;0.40;99.90
27741;DHT22;15134;48.768;9.184;2022-12-11T06:05:39;0.40;99.90
27741;DHT22;15134;48.768;9.184;2022-12-11T06:08:05;0.30;99.90
27741;DHT22;15134;48.768;9.184;2022-12-11T06:10:33;0.30;99.90
27741;DHT22;15134;48.768;9.184;2022-12-11T06:12:59;0.30;99.90
27741;DHT22;15134;48.768;9.184;2022-12-11T06:15:25;0.40;99.90
27741;DHT22;15134;48.768;9.184;2022-12-11T06:17:50;0.50;99.90
27741;DHT22;15134;48.768;9.184;2022-12-11T06:20:16;0.50;99.90
27741;DHT22;15134;48.768;9.184;2022-12-11T06:22:42;0.50;99.90
27741;DHT22;15134;48.768;9.184;2022-12-11T06:25:08;0.40;99.90
27741;DHT22;15134;48.768;9.184;2022-12-11T06:27:34;0.30;99.90
27741;DHT22;15134;48.768;9.184;2022-12-11T06:29:59;0.30;99.90
27741;DHT22;15134;48.768;9.184;2022-12-11T06:32:26;0.40;99.90
27741;DHT22;15134;48.768;9.184;2022-12-11T06:34:51;0.30;99.90
27741;DHT22;15134;48.768;9.184;2022-12-11T06:37:17;0.30;99.90
27741;DHT22;15134;48.768;9.184;2022-12-11T06:39:43;0.30;99.90
27741;DHT22;15134;48.768;9.184;2022-12-11T06:42:09;0.30;99.90
27741;DHT22;15134;48.768;9.184;2022-12-11T06:44:34;0.30;99.90
27741;DHT22;15134;48.768;9.184;2022-12-11T06:47:00;0.30;99.90
27741;DHT22;15134;48.768;9.184;2022-12-11T06:49:26;0.30;99.90
27741;DHT22;15134;48.768;9.184;2022-12-11T06:51:51;0.20;99.90
27741;DHT22;15134;48.768;9.184;2022-12-11T06:54:17;0.30;99.90
27741;DHT22;15134;48.768;9.184;2022-12-11T06:56:43;0.40;99.90
27741;DHT22;15134;48.768;9.184;2022-12-11T06:59:12;0.40;99.90
27741;DHT22;15134;48.768;9.184;2022-12-11T07:01:37;0.50;99.90
27741;DHT22;15134;48.768;9.184;2022-12-11T07:04:05;0.50;99.90
27741;DHT22;15134;48.768;9.184;2022-12-11T07:06:30;0.50;99.90
27741;DHT22;15134;48.768;9.184;2022-12-11T07:08:56;0.60;99.90
27741;DHT22;15134;48.768;9.184;2022-12-11T07:11:22;0.60;99.90
27741;DHT22;15134;48.768;9.184;2022-12-11T07:13:48;0.60;99.90
27741;DHT22;15134;48.768;9.184;2022-12-11T07:16:20;0.60;99.90
27741;DHT22;15134;48.768;9.184;2022-12-11T07:18:47;0.60;99.90
27741;DHT22;15134;48.768;9.184;2022-12-11T07:21:14;0.60;99.90
27741;DHT22;15134;48.768;9.184;2022-12-11T07:23:40;0.60;99.90
27741;DHT22;15134;48.768;9.184;2022-12-11T07:26:18;0.70;99.90
27741;DHT22;15134;48.768;9.184;2022-12-11T07:28:45;0.70;99.90
27741;DHT22;15134;48.768;9.184;2022-12-11T07:31:15;0.70;99.90
27741;DHT22;15134;48.768;9.184;2022-12-11T07:33:41;0.70;99.90
27741;DHT22;15134;48.768;9.184;2022-12-11T07:36:09;0.80;99.90
27741;DHT22;15134;48.768;9.184;2022-12-11T07:38:36;0.80;99.90
27741;DHT22;15134;48.768;9.184;2022-12-11T07:41:03;0.80;99.90
27741;DHT22;15134;48.768;9.184;2022-12-11T07:43:35;0.70;99.90
27741;DHT22;15134;48.768;9.184;2022-12-11T07:46:06;0.60;99.90
27741;DHT22;15134;48.768;9.184;2022-12-11T07:48:34;0.60;99.90
27741;DHT22;15134;48.768;9.184;2022-12-11T07:51:18;0.70;99.90
27741;DHT22;15134;48.768;9.184;2022-12-11T07:53:45;0.70;99.90
27741;DHT22;15134;48.768;9.184;2022-12-11T07:56:12;0.80;99.90
27741;DHT22;15134;48.768;9.184;2022-12-11T07:58:38;0.70;99.90
27741;DHT22;15134;48.768;9.184;2022-12-11T08:01:26;0.60;99.90
27741;DHT22;15134;48.768;9.184;2022-12-11T08:03:52;0.50;99.90
27741;DHT22;15134;48.768;9.184;2022-12-11T08:06:18;0.70;99.90
27741;DHT22;15134;48.768;9.184;2022-12-11T08:08:45;0.80;99.90
27741;DHT22;15134;48.768;9.184;2022-12-11T08:11:12;0.90;99.90
27741;DHT22;15134;48.768;9.184;2022-12-11T08:13:41;1.00;99.90
27741;DHT22;15134;48.768;9.184;2022-12-11T08:16:11;1.20;99.90
27741;DHT22;15134;48.768;9.184;2022-12-11T08:18:39;1.30;99.90
27741;DHT22;15134;48.768;9.184;2022-12-11T08:23:37;1.50;99.90
27741;DHT22;15134;48.768;9.184;2022-12-11T08:26:05;1.50;99.90
27741;DHT22;15134;48.768;9.184;2022-12-11T08:28:34;1.60;99.90
27741;DHT22;15134;48.768;9.184;2022-12-11T08:31:04;1.60;99.90
27741;DHT22;15134;48.768;9.184;2022-12-11T08:33:30;1.60;99.90
27741;DHT22;15134;48.768;9.184;2022-12-11T08:35:56;1.70;99.90
27741;DHT22;15134;48.768;9.184;2022-12-11T08:38:25;1.70;99.90
27741;DHT22;15134;48.768;9.184;2022-12-11T08:40:51;1.60;99.90
27741;DHT22;15134;48.768;9.184;2022-12-11T08:43:17;1.60;99.90
27741;DHT22;15134;48.768;9.184;2022-12-11T08:45:42;1.50;99.90
27741;DHT22;15134;48.768;9.184;2022-12-11T08:48:08;1.50;99.90
27741;DHT22;15134;48.768;9.184;2022-12-11T08:50:34;1.40;99.90
27741;DHT22;15134;48.768;9.184;2022-12-11T08:52:59;1.40;99.90
27741;DHT22;15134;48.768;9.184;2022-12-11T08:55:25;1.40;99.90
27741;DHT22;15134;48.768;9.184;2022-12-11T08:57:53;1.40;99.90
27741;DHT22;15134;48.768;9.184;2022-12-11T09:00:19;1.50;99.90
27741;DHT22;15134;48.768;9.184;2022-12-11T09:02:46;1.40;99.90
27741;DHT22;15134;48.768;9.184;2022-12-11T09:05:12;1.30;99.90
27741;DHT22;15134;48.768;9.184;2022-12-11T09:07:37;1.30;99.90
27741;DHT22;15134;48.768;9.184;2022-12-11T09:10:06;1.40;99.90
27741;DHT22;15134;48.768;9.184;2022-12-11T09:12:33;1.30;99.90
27741;DHT22;15134;48.768;9.184;2022-12-11T09:14:58;1.30;99.90
27741;DHT22;15134;48.768;9.184;2022-12-11T09:17:24;1.40;99.90
27741;DHT22;15134;48.768;9.184;2022-12-11T09:19:54;1.40;99.90
27741;DHT22;15134;48.768;9.184;2022-12-11T09:22:20;1.40;99.90
27741;DHT22;15134;48.768;9.184;2022-12-11T09:24:46;1.50;99.90
27741;DHT22;15134;48.768;9.184;2022-12-11T09:27:11;1.60;99.90
27741;DHT22;15134;48.768;9.184;2022-12-11T09:29:41;1.60;99.90
27741;DHT22;15134;48.768;9.184;2022-12-11T09:32:07;1.70;99.90
27741;DHT22;15134;48.768;9.184;2022-12-11T09:34:33;1.60;99.90
27741;DHT22;15134;48.768;9.184;2022-12-11T09:36:58;1.50;99.90
27741;DHT22;15134;48.768;9.184;2022-12-11T09:39:24;1.50;99.90
27741;DHT22;15134;48.768;9.184;2022-12-11T09:42:07;1.50;99.90
27741;DHT22;15134;48.768;9.184;2022-12-11T09:47:37;1.80;99.90
27741;DHT22;15134;48.768;9.184;2022-12-11T09:55:22;2.30;99.90
27741;DHT22;15134;48.768;9.184;2022-12-11T10:03:05;2.40;99.90
27741;DHT22;15134;48.768;9.184;2022-12-11T10:08:31;2.50;99.90
27741;DHT22;15134;48.768;9.184;2022-12-11T10:19:27;2.60;99.90
27741;DHT22;15134;48.768;9.184;2022-12-11T10:21:53;2.60;99.90
27741;DHT22;15134;48.768;9.184;2022-12-11T10:24:35;2.70;99.90
27741;DHT22;15134;48.768;9.184;2022-12-11T10:27:20;2.80;99.90
27741;DHT22;15134;48.768;9.184;2022-12-11T10:29:50;2.90;99.90
27741;DHT22;15134;48.768;9.184;2022-12-11T10:32:23;3.00;99.90
27741;DHT22;15134;48.768;9.184;2022-12-11T10:35:00;3.00;99.90
27741;DHT22;15134;48.768;9.184;2022-12-11T10:37:35;3.00;99.90
27741;DHT22;15134;48.768;9.184;2022-12-11T10:40:07;3.00;99.90
27741;DHT22;15134;48.768;9.184;2022-12-11T10:42:33;2.90;99.90
27741;DHT22;15134;48.768;9.184;2022-12-11T10:45:01;2.90;99.90
27741;DHT22;15134;48.768;9.184;2022-12-11T10:47:30;3.00;99.90
27741;DHT22;15134;48.768;9.184;2022-12-11T10:50:00;3.00;99.90
27741;DHT22;15134;48.768;9.184;2022-12-11T10:52:36;3.10;99.90
27741;DHT22;15134;48.768;9.184;2022-12-11T10:55:16;3.10;99.90
27741;DHT22;15134;48.768;9.184;2022-12-11T10:57:43;3.20;99.90
27741;DHT22;15134;48.768;9.184;2022-12-11T11:02:54;3.00;99.90
27741;DHT22;15134;48.768;9.184;2022-12-11T11:05:36;2.90;99.90
27741;DHT22;15134;48.768;9.184;2022-12-11T11:10:35;2.80;99.90
27741;DHT22;15134;48.768;9.184;2022-12-11T11:13:01;2.70;99.90
27741;DHT22;15134;48.768;9.184;2022-12-11T11:16:19;2.70;99.90
27741;DHT22;15134;48.768;9.184;2022-12-11T11:18:53;2.50;99.90
27741;DHT22;15134;48.768;9.184;2022-12-11T11:21:22;2.50;99.90
27741;DHT22;15134;48.768;9.184;2022-12-11T11:23:55;2.60;99.90
27741;DHT22;15134;48.768;9.184;2022-12-11T11:26:21;2.60;99.90
27741;DHT22;15134;48.768;9.184;2022-12-11T11:28:52;2.50;99.90
27741;DHT22;15134;48.768;9.184;2022-12-11T11:31:21;2.50;99.90
27741;DHT22;15134;48.768;9.184;2022-12-11T11:34:13;2.60;99.90
27741;DHT22;15134;48.768;9.184;2022-12-11T11:36:54;2.70;99.90
27741;DHT22;15134;48.768;9.184;2022-12-11T11:39:36;2.60;99.90
27741;DHT22;15134;48.768;9.184;2022-12-11T11:45:19;2.60;99.90
27741;DHT22;15134;48.768;9.184;2022-12-11T11:50:50;2.70;99.90
27741;DHT22;15134;48.768;9.184;2022-12-11T11:53:24;2.60;99.90
27741;DHT22;15134;48.768;9.184;2022-12-11T12:01:26;2.70;99.90
27741;DHT22;15134;48.768;9.184;2022-12-11T12:03:55;2.80;99.90
27741;DHT22;15134;48.768;9.184;2022-12-11T12:07:07;2.60;99.90
27741;DHT22;15134;48.768;9.184;2022-12-11T12:10:05;2.60;99.90
27741;DHT22;15134;48.768;9.184;2022-12-11T12:15:47;2.90;99.90
27741;DHT22;15134;48.768;9.184;2022-12-11T12:21:11;2.90;99.90
27741;DHT22;15134;48.768;9.184;2022-12-11T12:27:00;2.90;99.90
27741;DHT22;15134;48.768;9.184;2022-12-11T12:29:57;2.90;99.90
27741;DHT22;15134;48.768;9.184;2022-12-11T12:35:55;2.80;99.90
27741;DHT22;15134;48.768;9.184;2022-12-11T12:38:54;2.60;99.90
27741;DHT22;15134;48.768;9.184;2022-12-11T12:44:30;2.20;99.90
27741;DHT22;15134;48.768;9.184;2022-12-11T12:47:10;2.10;99.90
27741;DHT22;15134;48.768;9.184;2022-12-11T12:49:40;2.20;99.90
27741;DHT22;15134;48.768;9.184;2022-12-11T12:58:02;2.30;99.90
27741;DHT22;15134;48.768;9.184;2022-12-11T13:00:35;2.30;99.90
27741;DHT22;15134;48.768;9.184;2022-12-11T13:03:21;2.20;99.90
27741;DHT22;15134;48.768;9.184;2022-12-11T13:06:56;2.10;99.90
27741;DHT22;15134;48.768;9.184;2022-12-11T13:09:25;2.00;99.90
27741;DHT22;15134;48.768;9.184;2022-12-11T13:11:55;2.10;99.90
27741;DHT22;15134;48.768;9.184;2022-12-11T13:17:24;2.00;99.90
27741;DHT22;15134;48.768;9.184;2022-12-11T13:20:10;1.90;99.90
27741;DHT22;15134;48.768;9.184;2022-12-11T13:25:43;1.80;99.90
27741;DHT22;15134;48.768;9.184;2022-12-11T13:33:51;1.70;99.90
27741;DHT22;15134;48.768;9.184;2022-12-11T13:38:49;1.70;99.90
27741;DHT22;15134;48.768;9.184;2022-12-11T13:41:22;1.60;99.90
27741;DHT22;15134;48.768;9.184;2022-12-11T13:43:50;1.50;99.90
27741;DHT22;15134;48.768;9.184;2022-12-11T13:46:27;1.50;99.90
27741;DHT22;15134;48.768;9.184;2022-12-11T13:48:56;1.50;99.90
27741;DHT22;15134;48.768;9.184;2022-12-11T13:51:29;1.50;99.90
27741;DHT22;15134;48.768;9.184;2022-12-11T13:54:15;1.40;99.90
27741;DHT22;15134;48.768;9.184;2022-12-11T13:59:36;1.40;99.90
27741;DHT22;15134;48.768;9.184;2022-12-11T14:04:48;1.40;99.90
27741;DHT22;15134;48.768;9.184;2022-12-11T14:07:22;1.20;99.90
27741;DHT22;15134;48.768;9.184;2022-12-11T14:10:01;1.30;99.90
27741;DHT22;15134;48.768;9.184;2022-12-11T14:12:30;1.20;99.90
27741;DHT22;15134;48.768;9.184;2022-12-11T14:14:58;1.10;99.90
27741;DHT22;15134;48.768;9.184;2022-12-11T14:17:31;1.10;99.90
27741;DHT22;15134;48.768;9.184;2022-12-11T14:20:01;1.10;99.90
27741;DHT22;15134;48.768;9.184;2022-12-11T14:22:30;1.10;99.90
27741;DHT22;15134;48.768;9.184;2022-12-11T14:24:58;1.10;99.90
27741;DHT22;15134;48.768;9.184;2022-12-11T14:27:25;1.10;99.90
27741;DHT22;15134;48.768;9.184;2022-12-11T14:29:57;1.10;99.90
27741;DHT22;15134;48.768;9.184;2022-12-11T14:32:41;1.10;99.90
27741;DHT22;15134;48.768;9.184;2022-12-11T14:35:24;1.10;99.90
27741;DHT22;15134;48.768;9.184;2022-12-11T14:37:52;1.10;99.90
27741;DHT22;15134;48.768;9.184;2022-12-11T14:40:23;1.00;99.90
27741;DHT22;15134;48.768;9.184;2022-12-11T14:42:58;1.10;99.90
27741;DHT22;15134;48.768;9.184;2022-12-11T14:45:41;1.10;99.90
27741;DHT22;15134;48.768;9.184;2022-12-11T14:48:15;1.20;99.90
27741;DHT22;15134;48.768;9.184;2022-12-11T14:50:57;1.20;99.90
27741;DHT22;15134;48.768;9.184;2022-12-11T14:53:45;1.20;99.90
27741;DHT22;15134;48.768;9.184;2022-12-11T14:56:21;1.10;99.90
27741;DHT22;15134;48.768;9.184;2022-12-11T14:59:02;1.10;99.90
27741;DHT22;15134;48.768;9.184;2022-12-11T15:01:35;1.20;99.90
27741;DHT22;15134;48.768;9.184;2022-12-11T15:06:45;1.30;99.90
27741;DHT22;15134;48.768;9.184;2022-12-11T15:12:10;1.30;99.90
27741;DHT22;15134;48.768;9.184;2022-12-11T15:17:13;1.30;99.90
27741;DHT22;15134;48.768;9.184;2022-12-11T15:19:48;1.40;99.90
27741;DHT22;15134;48.768;9.184;2022-12-11T15:22:20;1.40;99.90
27741;DHT22;15134;48.768;9.184;2022-12-11T15:24:51;1.40;99.90
27741;DHT22;15134;48.768;9.184;2022-12-11T15:29:49;1.40;99.90
27741;DHT22;15134;48.768;9.184;2022-12-11T15:32:19;1.30;99.90
27741;DHT22;15134;48.768;9.184;2022-12-11T15:37:26;1.20;99.90
27741;DHT22;15134;48.768;9.184;2022-12-11T15:39:53;1.20;99.90
27741;DHT22;15134;48.768;9.184;2022-12-11T15:42:25;1.10;99.90
27741;DHT22;15134;48.768;9.184;2022-12-11T15:44:52;1.00;99.90
27741;DHT22;15134;48.768;9.184;2022-12-11T15:47:26;1.00;99.90
27741;DHT22;15134;48.768;9.184;2022-12-11T15:50:00;1.00;99.90
27741;DHT22;15134;48.768;9.184;2022-12-11T15:52:27;0.90;99.90
27741;DHT22;15134;48.768;9.184;2022-12-11T15:54:52;0.90;99.90
27741;DHT22;15134;48.768;9.184;2022-12-11T15:57:23;0.90;99.90
27741;DHT22;15134;48.768;9.184;2022-12-11T15:59:50;0.90;99.90
27741;DHT22;15134;48.768;9.184;2022-12-11T16:02:17;0.90;99.90
27741;DHT22;15134;48.768;9.184;2022-12-11T16:04:51;1.00;99.90
27741;DHT22;15134;48.768;9.184;2022-12-11T16:07:19;1.10;99.90
27741;DHT22;15134;48.768;9.184;2022-12-11T16:09:45;1.10;99.90
27741;DHT22;15134;48.768;9.184;2022-12-11T16:12:11;1.20;99.90
27741;DHT22;15134;48.768;9.184;2022-12-11T16:14:47;1.10;99.90
27741;DHT22;15134;48.768;9.184;2022-12-11T16:17:14;1.20;99.90
27741;DHT22;15134;48.768;9.184;2022-12-11T16:19:43;1.30;99.90
27741;DHT22;15134;48.768;9.184;2022-12-11T16:22:11;1.30;99.90
27741;DHT22;15134;48.768;9.184;2022-12-11T16:24:38;1.30;99.90
27741;DHT22;15134;48.768;9.184;2022-12-11T16:27:04;1.30;99.90
27741;DHT22;15134;48.768;9.184;2022-12-11T16:29:34;1.30;99.90
27741;DHT22;15134;48.768;9.184;2022-12-11T16:32:00;1.20;99.90
27741;DHT22;15134;48.768;9.184;2022-12-11T16:34:26;1.10;99.90
27741;DHT22;15134;48.768;9.184;2022-12-11T16:36:51;0.90;99.90
27741;DHT22;15134;48.768;9.184;2022-12-11T16:39:17;0.90;99.90
27741;DHT22;15134;48.768;9.184;2022-12-11T16:41:46;0.80;99.90
27741;DHT22;15134;48.768;9.184;2022-12-11T16:44:12;0.80;99.90
27741;DHT22;15134;48.768;9.184;2022-12-11T16:46:37;0.70;99.90
27741;DHT22;15134;48.768;9.184;2022-12-11T16:49:03;0.70;99.90
27741;DHT22;15134;48.768;9.184;2022-12-11T16:51:33;0.70;99.90
27741;DHT22;15134;48.768;9.184;2022-12-11T16:53:58;0.70;99.90
27741;DHT22;15134;48.768;9.184;2022-12-11T16:56:24;0.70;99.90
27741;DHT22;15134;48.768;9.184;2022-12-11T16:58:51;0.70;99.90
27741;DHT22;15134;48.768;9.184;2022-12-11T17:01:16;0.60;99.90
27741;DHT22;15134;48.768;9.184;2022-12-11T17:03:45;0.70;99.90
27741;DHT22;15134;48.768;9.184;2022-12-11T17:06:13;0.70;99.90
27741;DHT22;15134;48.768;9.184;2022-12-11T17:08:40;0.70;99.90
27741;DHT22;15134;48.768;9.184;2022-12-11T17:11:12;0.70;99.90
27741;DHT22;15134;48.768;9.184;2022-12-11T17:13:38;0.70;99.90
27741;DHT22;15134;48.768;9.184;2022-12-11T17:16:11;0.60;99.90
27741;DHT22;15134;48.768;9.184;2022-12-11T17:18:38;0.60;99.90
27741;DHT22;15134;48.768;9.184;2022-12-11T17:21:12;0.50;99.90
27741;DHT22;15134;48.768;9.184;2022-12-11T17:23:39;0.40;99.90
27741;DHT22;15134;48.768;9.184;2022-12-11T17:26:05;0.40;99.90
27741;DHT22;15134;48.768;9.184;2022-12-11T17:28:35;0.40;99.90
27741;DHT22;15134;48.768;9.184;2022-12-11T17:31:11;0.40;99.90
27741;DHT22;15134;48.768;9.184;2022-12-11T17:33:38;0.50;99.90
27741;DHT22;15134;48.768;9.184;2022-12-11T17:36:05;0.60;99.90
27741;DHT22;15134;48.768;9.184;2022-12-11T17:38:37;0.60;99.90
27741;DHT22;15134;48.768;9.184;2022-12-11T17:41:11;0.60;99.90
27741;DHT22;15134;48.768;9.184;2022-12-11T17:43:38;0.70;99.90
27741;DHT22;15134;48.768;9.184;2022-12-11T17:46:04;0.70;99.90
27741;DHT22;15134;48.768;9.184;2022-12-11T17:48:31;0.60;99.90
27741;DHT22;15134;48.768;9.184;2022-12-11T17:51:02;0.50;99.90
27741;DHT22;15134;48.768;9.184;2022-12-11T17:53:28;0.40;99.90
27741;DHT22;15134;48.768;9.184;2022-12-11T17:56:01;0.40;99.90
27741;DHT22;15134;48.768;9.184;2022-12-11T17:58:28;0.40;99.90